createdAt,value
2018-02-22T00:00:45.631Z,4.00
2018-02-22T00:01:45.622Z,4.00
2018-02-22T00:02:45.622Z,4.00
2018-02-22T00:03:45.620Z,4.00
2018-02-22T00:04:45.607Z,4.00
2018-02-22T00:05:45.612Z,4.00
2018-02-22T00:06:45.611Z,4.00
2018-02-22T00:07:45.615Z,4.00
2018-02-22T00:08:45.603Z,4.00
2018-02-22T00:09:45.598Z,4.00
2018-02-22T00:10:45.584Z,4.00
2018-02-22T00:11:45.692Z,4.00
2018-02-22T00:12:45.584Z,4.00
2018-02-22T00:13:45.585Z,4.00
2018-02-22T00:14:45.568Z,4.00
2018-02-22T00:15:45.578Z,4.00
2018-02-22T00:16:45.563Z,4.00
2018-02-22T00:17:45.568Z,4.00
2018-02-22T00:18:45.562Z,4.00
2018-02-22T00:19:45.557Z,4.00
2018-02-22T00:20:45.550Z,4.00
2018-02-22T00:21:45.550Z,4.00
2018-02-22T00:22:45.544Z,4.00
2018-02-22T00:23:45.543Z,4.00
2018-02-22T00:24:45.529Z,4.00
2018-02-22T00:25:45.537Z,4.00
2018-02-22T00:26:45.536Z,4.00
2018-02-22T00:27:45.525Z,4.00
2018-02-22T00:28:45.525Z,4.00
2018-02-22T00:29:45.511Z,4.00
2018-02-22T00:30:45.513Z,4.00
2018-02-22T00:31:45.505Z,4.00
2018-02-22T00:32:45.502Z,4.00
2018-02-22T00:33:45.500Z,4.00
2018-02-22T00:34:45.499Z,4.00
2018-02-22T00:35:45.494Z,4.00
2018-02-22T00:36:45.484Z,4.00
2018-02-22T00:37:45.486Z,4.00
2018-02-22T00:38:45.476Z,4.00
2018-02-22T00:39:45.471Z,4.00
2018-02-22T00:40:45.470Z,4.00
2018-02-22T00:41:45.470Z,4.00
2018-02-22T00:42:45.465Z,4.00
2018-02-22T00:43:45.462Z,4.00
2018-02-22T00:44:45.460Z,4.00
2018-02-22T00:45:45.445Z,4.00
2018-02-22T00:46:45.444Z,4.00
2018-02-22T00:47:45.447Z,4.00
2018-02-22T00:48:45.438Z,4.00
2018-02-22T00:49:45.420Z,4.00
2018-02-22T00:50:45.417Z,4.00
2018-02-22T00:51:45.431Z,4.00
2018-02-22T00:52:45.424Z,4.00
2018-02-22T00:53:45.419Z,4.00
2018-02-22T00:54:45.424Z,4.00
2018-02-22T00:55:45.406Z,4.00
2018-02-22T00:56:45.395Z,4.00
2018-02-22T00:57:45.388Z,4.00
2018-02-22T00:58:45.399Z,4.00
2018-02-22T00:59:45.500Z,4.00
2018-02-22T01:00:45.376Z,4.00
2018-02-22T01:01:45.372Z,4.00
2018-02-22T01:02:45.369Z,4.00
2018-02-22T01:03:45.384Z,4.00
2018-02-22T01:04:45.360Z,4.00
2018-02-22T01:05:45.371Z,4.00
2018-02-22T01:06:45.368Z,4.00
2018-02-22T01:07:45.349Z,4.00
2018-02-22T01:08:45.363Z,4.00
2018-02-22T01:09:45.346Z,4.00
2018-02-22T01:10:45.337Z,4.00
2018-02-22T01:11:45.350Z,4.00
2018-02-22T01:12:45.342Z,4.00
2018-02-22T01:13:45.326Z,4.00
2018-02-22T01:14:45.322Z,4.00
2018-02-22T01:15:45.335Z,4.00
2018-02-22T01:16:45.308Z,4.00
2018-02-22T01:17:45.327Z,4.00
2018-02-22T01:18:45.323Z,4.00
2018-02-22T01:19:45.303Z,4.00
2018-02-22T01:20:45.302Z,4.00
2018-02-22T01:21:45.312Z,4.00
2018-02-22T01:22:45.296Z,4.00
2018-02-22T01:23:45.283Z,4.00
2018-02-22T01:24:45.303Z,4.00
2018-02-22T01:25:45.273Z,4.00
2018-02-22T01:26:45.291Z,4.00
2018-02-22T01:27:45.274Z,4.00
2018-02-22T01:28:45.278Z,4.00
2018-02-22T01:29:45.278Z,4.00
2018-02-22T01:30:45.279Z,4.00
2018-02-22T01:31:45.271Z,4.00
2018-02-22T01:32:45.265Z,4.00
2018-02-22T01:33:45.280Z,4.00
2018-02-22T01:34:45.237Z,4.00
2018-02-22T01:35:45.255Z,4.00
2018-02-22T01:36:45.228Z,4.00
2018-02-22T01:37:45.247Z,4.00
2018-02-22T01:38:45.242Z,4.00
2018-02-22T01:39:45.238Z,4.00
2018-02-22T01:40:45.235Z,4.00
2018-02-22T01:41:45.218Z,4.00
2018-02-22T01:42:45.210Z,4.00
2018-02-22T01:43:45.201Z,4.00
2018-02-22T01:44:45.213Z,4.00
2018-02-22T01:45:45.201Z,4.00
2018-02-22T01:46:45.194Z,4.00
2018-02-22T01:47:45.196Z,4.00
2018-02-22T01:48:45.181Z,4.00
2018-02-22T01:49:45.186Z,4.00
2018-02-22T01:50:45.187Z,4.00
2018-02-22T01:51:45.168Z,4.00
2018-02-22T01:52:45.178Z,4.00
2018-02-22T01:53:45.165Z,4.00
2018-02-22T01:54:45.162Z,4.00
2018-02-22T01:55:45.152Z,4.00
2018-02-22T01:56:45.170Z,4.00
2018-02-22T01:57:45.163Z,4.00
2018-02-22T01:58:45.159Z,4.00
2018-02-22T01:59:45.159Z,4.00
2018-02-22T02:00:45.151Z,4.00
2018-02-22T02:01:45.144Z,4.00
2018-02-22T02:02:45.151Z,4.00
2018-02-22T02:03:45.136Z,4.00
2018-02-22T02:04:45.130Z,4.00
2018-02-22T02:05:45.133Z,4.00
2018-02-22T02:06:45.133Z,4.00
2018-02-22T02:07:45.128Z,4.00
2018-02-22T02:08:45.122Z,4.00
2018-02-22T02:09:45.120Z,4.00
2018-02-22T02:10:45.122Z,4.00
2018-02-22T02:11:45.111Z,4.00
2018-02-22T02:12:45.106Z,4.00
2018-02-22T02:13:45.102Z,4.00
2018-02-22T02:14:45.096Z,4.00
2018-02-22T02:15:45.096Z,4.00
2018-02-22T02:16:45.083Z,4.00
2018-02-22T02:17:45.081Z,4.00
2018-02-22T02:18:45.082Z,4.00
2018-02-22T02:19:45.076Z,4.00
2018-02-22T02:20:45.085Z,4.00
2018-02-22T02:21:45.063Z,4.00
2018-02-22T02:22:45.053Z,4.00
2018-02-22T02:23:45.061Z,4.00
2018-02-22T02:24:45.057Z,4.00
2018-02-22T02:25:45.048Z,4.00
2018-02-22T02:26:45.053Z,4.00
2018-02-22T02:27:45.032Z,4.00
2018-02-22T02:28:45.040Z,4.00
2018-02-22T02:29:45.038Z,4.00
2018-02-22T02:30:45.015Z,4.00
2018-02-22T02:31:45.024Z,4.00
2018-02-22T02:32:45.027Z,4.00
2018-02-22T02:33:45.001Z,4.00
2018-02-22T02:34:44.997Z,4.00
2018-02-22T02:35:44.988Z,4.00
2018-02-22T02:36:44.992Z,4.00
2018-02-22T02:37:44.997Z,4.00
2018-02-22T02:38:44.997Z,4.00
2018-02-22T02:39:44.988Z,4.00
2018-02-22T02:40:45.041Z,4.00
2018-02-22T02:41:44.968Z,4.00
2018-02-22T02:42:44.983Z,4.00
2018-02-22T02:43:44.975Z,4.00
2018-02-22T02:44:44.949Z,4.00
2018-02-22T02:45:44.970Z,4.00
2018-02-22T02:46:44.940Z,4.00
2018-02-22T02:47:44.958Z,4.00
2018-02-22T02:48:44.956Z,4.00
2018-02-22T02:49:44.933Z,4.00
2018-02-22T02:50:44.940Z,4.00
2018-02-22T02:51:44.920Z,4.00
2018-02-22T02:52:44.933Z,4.00
2018-02-22T02:53:45.032Z,4.00
2018-02-22T02:54:44.932Z,4.00
2018-02-22T02:55:44.914Z,4.00
2018-02-22T02:56:44.923Z,4.00
2018-02-22T02:57:44.898Z,4.00
2018-02-22T02:58:44.895Z,4.00
2018-02-22T02:59:45.002Z,4.00
2018-02-22T03:00:44.898Z,4.00
2018-02-22T03:01:44.894Z,4.00
2018-02-22T03:02:44.897Z,4.00
2018-02-22T03:03:44.873Z,4.00
2018-02-22T03:04:44.872Z,4.00
2018-02-22T03:05:44.868Z,4.00
2018-02-22T03:06:44.853Z,4.00
2018-02-22T03:07:44.876Z,4.00
2018-02-22T03:08:44.871Z,4.00
2018-02-22T03:09:44.850Z,4.00
2018-02-22T03:10:44.863Z,4.00
2018-02-22T03:11:44.838Z,4.00
2018-02-22T03:12:44.833Z,4.00
2018-02-22T03:13:44.837Z,4.00
2018-02-22T03:14:44.819Z,4.00
2018-02-22T03:15:44.833Z,4.00
2018-02-22T03:16:44.821Z,4.00
2018-02-22T03:17:44.805Z,4.00
2018-02-22T03:18:44.828Z,4.00
2018-02-22T03:19:44.807Z,4.00
2018-02-22T03:20:44.819Z,4.00
2018-02-22T03:21:44.817Z,4.00
2018-02-22T03:22:44.796Z,4.00
2018-02-22T03:23:44.885Z,4.00
2018-02-22T03:24:44.784Z,4.00
2018-02-22T03:25:44.779Z,4.00
2018-02-22T03:26:44.792Z,4.00
2018-02-22T03:27:44.767Z,4.00
2018-02-22T03:28:44.762Z,4.00
2018-02-22T03:29:44.763Z,4.00
2018-02-22T03:30:44.758Z,4.00
2018-02-22T03:31:44.766Z,4.00
2018-02-22T03:32:44.764Z,4.00
2018-02-22T03:33:44.810Z,4.00
2018-02-22T03:34:44.753Z,4.00
2018-02-22T03:35:44.753Z,4.00
2018-02-22T03:36:44.743Z,4.00
2018-02-22T03:37:44.740Z,4.00
2018-02-22T03:38:44.736Z,4.00
2018-02-22T03:39:44.732Z,4.00
2018-02-22T03:40:44.728Z,4.00
2018-02-22T03:41:44.719Z,4.00
2018-02-22T03:42:44.721Z,4.00
2018-02-22T03:43:44.716Z,4.00
2018-02-22T03:44:44.705Z,4.00
2018-02-22T03:45:44.708Z,4.00
2018-02-22T03:46:44.701Z,4.00
2018-02-22T03:47:44.796Z,4.00
2018-02-22T03:48:44.694Z,4.00
2018-02-22T03:49:44.683Z,4.00
2018-02-22T03:50:44.681Z,4.00
2018-02-22T03:51:44.675Z,4.00
2018-02-22T03:52:44.673Z,4.00
2018-02-22T03:53:44.672Z,4.00
2018-02-22T03:54:44.663Z,4.00
2018-02-22T03:55:44.663Z,4.00
2018-02-22T03:56:44.653Z,4.00
2018-02-22T03:57:44.647Z,4.00
2018-02-22T03:58:44.643Z,4.00
2018-02-22T03:59:44.640Z,4.00
2018-02-22T04:00:44.639Z,4.00
2018-02-22T04:01:44.678Z,4.00
2018-02-22T04:02:44.632Z,4.00
2018-02-22T04:03:44.620Z,4.00
2018-02-22T04:04:44.617Z,4.00
2018-02-22T04:05:44.614Z,4.00
2018-02-22T04:06:44.610Z,4.00
2018-02-22T04:07:44.606Z,4.00
2018-02-22T04:08:44.596Z,4.00
2018-02-22T04:09:44.597Z,4.00
2018-02-22T04:10:44.592Z,4.00
2018-02-22T04:11:44.583Z,4.00
2018-02-22T04:12:44.584Z,4.00
2018-02-22T04:13:44.574Z,4.00
2018-02-22T04:14:44.573Z,4.00
2018-02-22T04:15:44.565Z,4.00
2018-02-22T04:16:44.560Z,4.00
2018-02-22T04:17:44.556Z,4.00
2018-02-22T04:18:44.556Z,4.00
2018-02-22T04:19:44.553Z,4.00
2018-02-22T04:20:44.546Z,4.00
2018-02-22T04:21:44.546Z,4.00
2018-02-22T04:22:44.539Z,4.00
2018-02-22T04:23:44.632Z,4.00
2018-02-22T04:24:44.524Z,4.00
2018-02-22T04:25:44.524Z,4.00
2018-02-22T04:26:44.519Z,4.00
2018-02-22T04:27:44.514Z,4.00
2018-02-22T04:28:44.510Z,4.00
2018-02-22T04:29:44.604Z,4.00
2018-02-22T04:30:44.506Z,4.00
2018-02-22T04:31:44.493Z,4.00
2018-02-22T04:32:44.490Z,4.00
2018-02-22T04:33:44.483Z,4.00
2018-02-22T04:34:44.484Z,4.00
2018-02-22T04:35:44.475Z,4.00
2018-02-22T04:36:44.470Z,4.00
2018-02-22T04:37:44.472Z,4.00
2018-02-22T04:38:44.463Z,4.00
2018-02-22T04:39:44.463Z,4.00
2018-02-22T04:40:44.455Z,4.00
2018-02-22T04:41:44.453Z,4.00
2018-02-22T04:42:44.450Z,4.00
2018-02-22T04:43:44.444Z,4.00
2018-02-22T04:44:44.439Z,4.00
2018-02-22T04:45:44.435Z,4.00
2018-02-22T04:46:44.431Z,4.00
2018-02-22T04:47:44.422Z,4.00
2018-02-22T04:48:44.417Z,4.00
2018-02-22T04:49:44.412Z,4.00
2018-02-22T04:50:44.403Z,4.00
2018-02-22T04:51:44.404Z,4.00
2018-02-22T04:52:44.394Z,4.00
2018-02-22T04:53:44.499Z,4.00
2018-02-22T04:54:44.385Z,4.00
2018-02-22T04:55:44.390Z,4.00
2018-02-22T04:56:44.384Z,4.00
2018-02-22T04:57:44.380Z,4.00
2018-02-22T04:58:44.375Z,4.00
2018-02-22T04:59:44.467Z,4.00
2018-02-22T05:00:44.366Z,4.00
2018-02-22T05:01:44.357Z,4.00
2018-02-22T05:02:44.357Z,4.00
2018-02-22T05:03:44.352Z,4.00
2018-02-22T05:04:44.348Z,4.00
2018-02-22T05:05:44.341Z,4.00
2018-02-22T05:06:44.337Z,4.00
2018-02-22T05:07:44.333Z,4.00
2018-02-22T05:08:44.327Z,4.00
2018-02-22T05:09:44.313Z,4.00
2018-02-22T05:10:44.314Z,4.00
2018-02-22T05:11:44.409Z,4.00
2018-02-22T05:12:44.300Z,4.00
2018-02-22T05:13:44.303Z,4.00
2018-02-22T05:14:44.298Z,4.00
2018-02-22T05:15:44.284Z,4.00
2018-02-22T05:16:44.286Z,4.00
2018-02-22T05:17:44.275Z,4.00
2018-02-22T05:18:44.272Z,4.00
2018-02-22T05:19:44.268Z,4.00
2018-02-22T05:20:44.242Z,4.00
2018-02-22T05:21:44.246Z,4.00
2018-02-22T05:22:44.257Z,4.00
2018-02-22T05:23:44.329Z,4.00
2018-02-22T05:24:44.243Z,4.00
2018-02-22T05:25:44.272Z,4.00
2018-02-22T05:26:44.232Z,4.00
2018-02-22T05:27:44.215Z,4.00
2018-02-22T05:28:44.202Z,4.00
2018-02-22T05:29:44.213Z,4.00
2018-02-22T05:30:44.198Z,4.00
2018-02-22T05:31:44.202Z,4.00
2018-02-22T05:32:44.196Z,4.00
2018-02-22T05:33:44.191Z,4.00
2018-02-22T05:34:44.182Z,4.00
2018-02-22T05:35:44.176Z,4.00
2018-02-22T05:36:44.176Z,4.00
2018-02-22T05:37:44.157Z,4.00
2018-02-22T05:38:44.166Z,4.00
2018-02-22T05:39:44.162Z,4.00
2018-02-22T05:40:44.141Z,4.00
2018-02-22T05:41:44.156Z,4.00
2018-02-22T05:42:44.155Z,4.00
2018-02-22T05:43:44.126Z,4.00
2018-02-22T05:44:44.130Z,4.00
2018-02-22T05:45:44.117Z,4.00
2018-02-22T05:46:44.134Z,4.00
2018-02-22T05:47:44.111Z,4.00
2018-02-22T05:48:44.120Z,4.00
2018-02-22T05:49:44.119Z,4.00
2018-02-22T05:50:44.106Z,4.00
2018-02-22T05:51:44.103Z,4.00
2018-02-22T05:52:44.104Z,4.00
2018-02-22T05:53:44.184Z,4.00
2018-02-22T05:54:44.093Z,4.00
2018-02-22T05:55:44.075Z,4.00
2018-02-22T05:56:44.079Z,4.00
2018-02-22T05:57:44.063Z,4.00
2018-02-22T05:58:44.055Z,4.00
2018-02-22T05:59:44.064Z,4.00
2018-02-22T06:00:44.059Z,4.00
2018-02-22T06:01:44.044Z,4.00
2018-02-22T06:02:44.028Z,4.00
2018-02-22T06:03:44.048Z,4.00
2018-02-22T06:04:44.042Z,4.00
2018-02-22T06:05:44.013Z,4.00
2018-02-22T06:06:44.032Z,4.00
2018-02-22T06:07:47.060Z,4.00
2018-02-22T06:08:44.023Z,4.00
2018-02-22T06:09:44.005Z,4.00
2018-02-22T06:14:43.989Z,4.00
2018-02-22T06:15:43.972Z,4.00
2018-02-22T06:16:43.981Z,4.00
2018-02-22T06:17:43.977Z,4.00
2018-02-22T06:18:43.951Z,4.00
2018-02-22T06:19:43.952Z,4.00
2018-02-22T06:20:43.944Z,4.00
2018-02-22T06:21:43.936Z,4.00
2018-02-22T06:22:43.931Z,4.00
2018-02-22T06:23:43.930Z,4.00
2018-02-22T06:24:43.925Z,4.00
2018-02-22T06:25:43.920Z,4.00
2018-02-22T06:26:43.915Z,4.00
2018-02-22T06:27:43.923Z,4.00
2018-02-22T06:28:43.904Z,4.00
2018-02-22T06:29:43.911Z,4.00
2018-02-22T06:30:43.894Z,4.00
2018-02-22T06:31:43.907Z,4.00
2018-02-22T06:32:43.897Z,4.00
2018-02-22T06:33:43.876Z,4.00
2018-02-22T06:34:43.890Z,4.00
2018-02-22T06:35:43.864Z,4.00
2018-02-22T06:36:43.858Z,4.00
2018-02-22T06:37:43.879Z,4.00
2018-02-22T06:38:43.866Z,4.00
2018-02-22T06:39:43.860Z,4.00
2018-02-22T06:40:43.856Z,4.00
2018-02-22T06:41:43.850Z,4.00
2018-02-22T06:42:43.827Z,4.00
2018-02-22T06:43:43.827Z,4.00
2018-02-22T06:44:43.812Z,4.00
2018-02-22T06:45:43.808Z,4.00
2018-02-22T06:46:43.811Z,4.00
2018-02-22T06:47:43.802Z,4.00
2018-02-22T06:48:43.801Z,4.00
2018-02-22T06:49:43.813Z,4.00
2018-02-22T06:50:43.890Z,4.00
2018-02-22T06:51:43.782Z,4.00
2018-02-22T06:52:43.787Z,4.00
2018-02-22T06:53:43.774Z,4.00
2018-02-22T06:54:43.789Z,4.00
2018-02-22T06:55:43.781Z,4.00
2018-02-22T06:56:43.755Z,4.00
2018-02-22T06:57:43.744Z,4.00
2018-02-22T06:58:43.769Z,4.00
2018-02-22T06:59:43.754Z,4.00
2018-02-22T07:00:43.751Z,4.00
2018-02-22T07:01:43.751Z,4.00
2018-02-22T07:02:43.841Z,4.00
2018-02-22T07:03:43.736Z,4.00
2018-02-22T07:04:43.734Z,4.00
2018-02-22T07:05:43.720Z,4.00
2018-02-22T07:06:43.717Z,4.00
2018-02-22T07:07:43.715Z,4.00
2018-02-22T07:08:43.709Z,4.00
2018-02-22T07:09:43.709Z,4.00
2018-02-22T07:10:43.694Z,4.00
2018-02-22T07:11:43.699Z,4.00
2018-02-22T07:12:43.683Z,4.00
2018-02-22T07:13:43.683Z,4.00
2018-02-22T07:14:43.678Z,4.00
2018-02-22T07:15:43.677Z,4.00
2018-02-22T07:16:43.667Z,4.00
2018-02-22T07:17:43.661Z,4.00
2018-02-22T07:18:43.656Z,4.00
2018-02-22T07:19:43.651Z,4.00
2018-02-22T07:20:43.649Z,4.00
2018-02-22T07:21:43.643Z,4.00
2018-02-22T07:22:43.638Z,4.00
2018-02-22T07:23:43.629Z,4.00
2018-02-22T07:24:43.623Z,4.00
2018-02-22T07:25:43.622Z,4.00
2018-02-22T07:26:43.613Z,4.00
2018-02-22T07:27:43.672Z,4.00
2018-02-22T07:28:43.604Z,4.00
2018-02-22T07:29:43.602Z,4.00
2018-02-22T07:30:43.595Z,4.00
2018-02-22T07:31:43.586Z,4.00
2018-02-22T07:32:43.580Z,4.00
2018-02-22T07:33:43.558Z,4.00
2018-02-22T07:34:43.552Z,4.00
2018-02-22T07:35:43.570Z,4.00
2018-02-22T07:36:43.563Z,4.00
2018-02-22T07:37:43.558Z,4.00
2018-02-22T07:38:43.638Z,4.00
2018-02-22T07:39:43.543Z,4.00
2018-02-22T07:40:43.542Z,4.00
2018-02-22T07:41:43.537Z,4.00
2018-02-22T07:42:43.515Z,4.00
2018-02-22T07:43:43.527Z,4.00
2018-02-22T07:44:43.521Z,4.00
2018-02-22T07:45:43.515Z,4.00
2018-02-22T07:46:43.511Z,4.00
2018-02-22T07:47:43.506Z,4.00
2018-02-22T07:48:43.501Z,4.00
2018-02-22T07:49:43.495Z,4.00
2018-02-22T07:50:43.489Z,4.00
2018-02-22T07:51:43.466Z,4.00
2018-02-22T07:52:43.478Z,4.00
2018-02-22T07:53:43.472Z,4.00
2018-02-22T07:54:43.468Z,4.00
2018-02-22T07:55:43.463Z,4.00
2018-02-22T07:56:43.439Z,4.00
2018-02-22T07:57:43.434Z,4.00
2018-02-22T07:58:43.429Z,4.00
2018-02-22T07:59:43.424Z,4.00
2018-02-22T08:00:43.435Z,4.00
2018-02-22T08:01:43.563Z,4.00
2018-02-22T08:02:43.409Z,4.00
2018-02-22T08:03:43.403Z,4.00
2018-02-22T08:04:43.393Z,4.00
2018-02-22T08:05:43.389Z,4.00
2018-02-22T08:06:43.387Z,4.00
2018-02-22T08:07:43.399Z,4.00
2018-02-22T08:08:43.393Z,4.00
2018-02-22T08:09:43.387Z,4.00
2018-02-22T08:10:43.378Z,4.00
2018-02-22T08:11:43.377Z,4.00
2018-02-22T08:12:43.371Z,4.00
2018-02-22T08:13:43.466Z,4.00
2018-02-22T08:14:43.361Z,4.00
2018-02-22T08:15:43.355Z,4.00
2018-02-22T08:16:43.358Z,4.00
2018-02-22T08:17:43.344Z,4.00
2018-02-22T08:18:43.334Z,4.00
2018-02-22T08:19:43.329Z,4.00
2018-02-22T08:20:43.327Z,4.00
2018-02-22T08:21:43.323Z,4.00
2018-02-22T08:22:43.316Z,4.00
2018-02-22T08:23:43.311Z,4.00
2018-02-22T08:24:43.306Z,4.00
2018-02-22T08:25:43.295Z,4.00
2018-02-22T08:26:43.290Z,4.00
2018-02-22T08:27:43.285Z,4.00
2018-02-22T08:28:43.278Z,4.00
2018-02-22T08:29:43.275Z,4.00
2018-02-22T08:30:43.268Z,4.00
2018-02-22T08:31:43.264Z,4.00
2018-02-22T08:32:43.256Z,4.00
2018-02-22T08:33:43.251Z,4.00
2018-02-22T08:34:43.246Z,4.00
2018-02-22T08:35:43.244Z,4.00
2018-02-22T08:36:43.234Z,4.00
2018-02-22T08:37:43.232Z,4.00
2018-02-22T08:38:43.222Z,4.00
2018-02-22T08:39:43.217Z,8.00
2018-02-22T08:40:43.214Z,8.00
2018-02-22T08:41:43.207Z,8.00
2018-02-22T08:42:43.198Z,8.00
2018-02-22T08:43:43.297Z,8.00
2018-02-22T08:44:43.196Z,8.00
2018-02-22T08:45:43.185Z,4.00
2018-02-22T08:46:43.175Z,8.00
2018-02-22T08:47:43.174Z,8.00
2018-02-22T08:48:43.169Z,8.00
2018-02-22T08:49:43.258Z,8.00
2018-02-22T08:50:43.157Z,8.00
2018-02-22T08:51:43.151Z,12.00
2018-02-22T08:52:43.144Z,8.00
2018-02-22T08:53:43.139Z,12.00
2018-02-22T08:54:43.134Z,12.00
2018-02-22T08:55:43.229Z,12.00
2018-02-22T08:56:43.118Z,12.00
2018-02-22T08:57:43.117Z,12.00
2018-02-22T08:58:43.112Z,12.00
2018-02-22T08:59:43.106Z,16.00
2018-02-22T09:00:43.100Z,16.00
2018-02-22T09:01:43.094Z,16.00
2018-02-22T09:02:43.089Z,16.00
2018-02-22T09:03:43.085Z,8.00
2018-02-22T09:04:43.078Z,12.00
2018-02-22T09:05:43.073Z,12.00
2018-02-22T09:06:43.064Z,16.00
2018-02-22T09:07:43.062Z,20.00
2018-02-22T09:08:43.058Z,20.00
2018-02-22T09:09:43.051Z,20.00
2018-02-22T09:10:43.046Z,24.00
2018-02-22T09:11:43.040Z,28.00
2018-02-22T09:12:43.034Z,32.00
2018-02-22T09:13:43.029Z,36.00
2018-02-22T09:14:43.026Z,36.00
2018-02-22T09:15:43.042Z,36.00
2018-02-22T09:16:43.011Z,36.00
2018-02-22T09:17:43.009Z,40.00
2018-02-22T09:18:43.000Z,40.00
2018-02-22T09:19:42.995Z,44.00
2018-02-22T09:20:42.993Z,48.00
2018-02-22T09:21:42.988Z,44.00
2018-02-22T09:22:42.982Z,48.00
2018-02-22T09:23:42.978Z,52.00
2018-02-22T09:24:42.973Z,52.00
2018-02-22T09:25:42.966Z,52.00
2018-02-22T09:26:42.956Z,56.00
2018-02-22T09:27:42.951Z,60.00
2018-02-22T09:28:42.949Z,60.00
2018-02-22T09:29:42.943Z,64.00
2018-02-22T09:30:42.938Z,68.00
2018-02-22T09:31:42.934Z,72.00
2018-02-22T09:32:42.930Z,76.00
2018-02-22T09:33:42.922Z,80.00
2018-02-22T09:34:42.912Z,84.00
2018-02-22T09:35:42.912Z,88.00
2018-02-22T09:36:42.907Z,92.00
2018-02-22T09:37:42.900Z,96.00
2018-02-22T09:38:42.895Z,100.00
2018-02-22T09:39:42.892Z,100.00
2018-02-22T09:40:42.883Z,104.00
2018-02-22T09:41:42.874Z,100.00
2018-02-22T09:42:42.875Z,104.00
2018-02-22T09:43:42.870Z,104.00
2018-02-22T09:44:42.859Z,108.00
2018-02-22T09:45:42.857Z,112.00
2018-02-22T09:46:42.852Z,116.00
2018-02-22T09:47:42.847Z,116.00
2018-02-22T09:48:42.823Z,120.00
2018-02-22T09:49:42.819Z,124.00
2018-02-22T09:50:42.809Z,124.00
2018-02-22T09:51:42.824Z,132.00
2018-02-22T09:52:42.812Z,140.00
2018-02-22T09:53:42.794Z,152.00
2018-02-22T09:54:42.802Z,160.00
2018-02-22T09:55:42.796Z,168.00
2018-02-22T09:56:42.776Z,172.00
2018-02-22T09:57:42.790Z,176.00
2018-02-22T09:58:42.781Z,176.00
2018-02-22T09:59:42.765Z,180.00
2018-02-22T10:00:42.768Z,184.00
2018-02-22T10:01:42.768Z,176.00
2018-02-22T10:02:42.745Z,180.00
2018-02-22T10:03:42.757Z,184.00
2018-02-22T10:04:42.733Z,188.00
2018-02-22T10:05:42.747Z,196.00
2018-02-22T10:06:42.726Z,200.00
2018-02-22T10:07:42.726Z,212.00
2018-02-22T10:08:42.706Z,220.00
2018-02-22T10:09:42.706Z,224.00
2018-02-22T10:10:42.711Z,220.00
2018-02-22T10:11:42.696Z,228.00
2018-02-22T10:12:42.709Z,220.00
2018-02-22T10:13:42.699Z,212.00
2018-02-22T10:14:42.695Z,200.00
2018-02-22T10:15:42.679Z,200.00
2018-02-22T10:16:42.669Z,200.00
2018-02-22T10:17:42.679Z,200.00
2018-02-22T10:18:42.678Z,200.00
2018-02-22T10:19:42.650Z,196.00
2018-02-22T10:20:42.649Z,184.00
2018-02-22T10:21:42.647Z,180.00
2018-02-22T10:22:42.639Z,164.00
2018-02-22T10:23:42.654Z,160.00
2018-02-22T10:24:42.643Z,164.00
2018-02-22T10:25:42.639Z,184.00
2018-02-22T10:26:42.619Z,204.00
2018-02-22T10:27:42.618Z,212.00
2018-02-22T10:28:42.618Z,224.00
2018-02-22T10:29:42.617Z,228.00
2018-02-22T10:30:42.643Z,224.00
2018-02-22T10:31:42.688Z,232.00
2018-02-22T10:32:42.597Z,224.00
2018-02-22T10:33:42.602Z,256.00
2018-02-22T10:34:42.597Z,312.00
2018-02-22T10:35:42.569Z,340.00
2018-02-22T10:36:42.586Z,328.00
2018-02-22T10:37:42.574Z,312.00
2018-02-22T10:38:42.568Z,292.00
2018-02-22T10:39:42.548Z,276.00
2018-02-22T10:40:42.565Z,268.00
2018-02-22T10:41:42.546Z,304.00
2018-02-22T10:42:42.539Z,332.00
2018-02-22T10:43:42.537Z,360.00
2018-02-22T10:44:42.546Z,376.00
2018-02-22T10:45:42.526Z,368.00
2018-02-22T10:46:42.522Z,364.00
2018-02-22T10:47:42.533Z,348.00
2018-02-22T10:48:42.512Z,344.00
2018-02-22T10:49:42.522Z,316.00
2018-02-22T10:50:42.503Z,316.00
2018-02-22T10:51:42.513Z,332.00
2018-02-22T10:52:42.498Z,372.00
2018-02-22T10:53:42.504Z,424.00
2018-02-22T10:54:42.490Z,468.00
2018-02-22T10:55:42.595Z,480.00
2018-02-22T10:56:42.474Z,468.00
2018-02-22T10:57:42.490Z,440.00
2018-02-22T10:58:42.466Z,428.00
2018-02-22T10:59:42.468Z,420.00
2018-02-22T11:00:42.455Z,384.00
2018-02-22T11:01:42.466Z,352.00
2018-02-22T11:02:42.452Z,336.00
2018-02-22T11:03:42.447Z,356.00
2018-02-22T11:04:42.451Z,324.00
2018-02-22T11:05:42.437Z,308.00
2018-02-22T11:06:42.442Z,292.00
2018-02-22T11:07:42.438Z,284.00
2018-02-22T11:08:42.422Z,284.00
2018-02-22T11:09:42.419Z,316.00
2018-02-22T11:10:42.425Z,352.00
2018-02-22T11:11:42.419Z,384.00
2018-02-22T11:12:42.414Z,356.00
2018-02-22T11:13:42.400Z,332.00
2018-02-22T11:14:42.404Z,316.00
2018-02-22T11:15:42.394Z,340.00
2018-02-22T11:16:42.387Z,324.00
2018-02-22T11:17:42.380Z,320.00
2018-02-22T11:18:42.389Z,328.00
2018-02-22T11:19:42.372Z,336.00
2018-02-22T11:20:42.366Z,336.00
2018-02-22T11:21:42.362Z,352.00
2018-02-22T11:22:42.388Z,384.00
2018-02-22T11:23:42.352Z,416.00
2018-02-22T11:24:42.347Z,392.00
2018-02-22T11:25:42.345Z,412.00
2018-02-22T11:26:42.343Z,412.00
2018-02-22T11:27:42.339Z,424.00
2018-02-22T11:28:42.329Z,472.00
2018-02-22T11:29:42.333Z,548.00
2018-02-22T11:30:42.319Z,576.00
2018-02-22T11:31:42.324Z,604.00
2018-02-22T11:32:42.315Z,624.00
2018-02-22T11:33:42.307Z,632.00
2018-02-22T11:34:42.296Z,656.00
2018-02-22T11:35:42.335Z,616.00
2018-02-22T11:36:42.282Z,544.00
2018-02-22T11:37:42.273Z,488.00
2018-02-22T11:38:42.270Z,460.00
2018-02-22T11:39:42.269Z,444.00
2018-02-22T11:40:42.269Z,396.00
2018-02-22T11:41:42.277Z,436.00
2018-02-22T11:42:42.262Z,456.00
2018-02-22T11:43:42.254Z,564.00
2018-02-22T11:44:42.243Z,624.00
2018-02-22T11:45:42.248Z,588.00
2018-02-22T11:46:42.244Z,536.00
2018-02-22T11:47:42.282Z,540.00
2018-02-22T11:48:42.240Z,552.00
2018-02-22T11:49:42.232Z,556.00
2018-02-22T11:50:42.225Z,532.00
2018-02-22T11:51:42.221Z,508.00
2018-02-22T11:52:42.230Z,480.00
2018-02-22T11:53:42.217Z,492.00
2018-02-22T11:54:42.213Z,544.00
2018-02-22T11:55:42.210Z,568.00
2018-02-22T11:56:42.200Z,580.00
2018-02-22T11:57:42.218Z,576.00
2018-02-22T11:58:42.193Z,484.00
2018-02-22T11:59:42.189Z,432.00
2018-02-22T12:00:42.339Z,476.00
2018-02-22T12:01:42.182Z,476.00
2018-02-22T12:02:42.181Z,468.00
2018-02-22T12:03:42.178Z,480.00
2018-02-22T12:04:42.176Z,480.00
2018-02-22T12:05:42.164Z,480.00
2018-02-22T12:06:42.164Z,480.00
2018-02-22T12:07:42.163Z,480.00
2018-02-22T12:08:42.155Z,484.00
2018-02-22T12:09:42.152Z,496.00
2018-02-22T12:10:42.148Z,504.00
2018-02-22T12:11:42.147Z,532.00
2018-02-22T12:12:42.130Z,540.00
2018-02-22T12:13:42.137Z,536.00
2018-02-22T12:14:42.132Z,568.00
2018-02-22T12:15:42.118Z,612.00
2018-02-22T12:16:42.123Z,592.00
2018-02-22T12:17:42.119Z,700.00
2018-02-22T12:18:42.122Z,752.00
2018-02-22T12:19:42.104Z,748.00
2018-02-22T12:20:42.098Z,708.00
2018-02-22T12:21:42.095Z,676.00
2018-02-22T12:22:42.350Z,664.00
2018-02-22T12:23:42.097Z,688.00
2018-02-22T12:24:42.092Z,828.00
2018-02-22T12:25:42.088Z,840.00
2018-02-22T12:26:42.086Z,768.00
2018-02-22T12:27:42.081Z,684.00
2018-02-22T12:28:43.116Z,712.00
2018-02-22T12:29:42.070Z,720.00
2018-02-22T12:30:42.066Z,628.00
2018-02-22T12:31:42.063Z,544.00
2018-02-22T12:32:42.061Z,540.00
2018-02-22T12:33:42.050Z,728.00
2018-02-22T12:34:42.054Z,692.00
2018-02-22T12:35:42.049Z,796.00
2018-02-22T12:36:42.045Z,856.00
2018-02-22T12:37:42.046Z,784.00
2018-02-22T12:38:42.039Z,776.00
2018-02-22T12:39:42.036Z,724.00
2018-02-22T12:40:42.136Z,704.00
2018-02-22T12:41:42.029Z,720.00
2018-02-22T12:42:42.049Z,844.00
2018-02-22T12:43:42.024Z,1724.00
2018-02-22T12:44:42.021Z,1836.00
2018-02-22T12:45:42.039Z,1912.00
2018-02-22T12:46:42.032Z,1968.00
2018-02-22T12:47:42.013Z,2036.00
2018-02-22T12:48:42.034Z,1944.00
2018-02-22T12:49:42.011Z,2032.00
2018-02-22T12:50:42.023Z,940.00
2018-02-22T12:51:42.003Z,2140.00
2018-02-22T12:52:42.017Z,2044.00
2018-02-22T12:53:42.056Z,2048.00
2018-02-22T12:54:42.019Z,2008.00
2018-02-22T12:55:41.999Z,1192.00
2018-02-22T12:56:42.014Z,884.00
2018-02-22T12:57:42.013Z,824.00
2018-02-22T12:58:41.990Z,2152.00
2018-02-22T12:59:42.006Z,2356.00
2018-02-22T13:00:41.989Z,2400.00
2018-02-22T13:01:41.990Z,2324.00
2018-02-22T13:02:42.007Z,2304.00
2018-02-22T13:03:41.989Z,2176.00
2018-02-22T13:04:41.984Z,660.00
2018-02-22T13:05:42.101Z,2124.00
2018-02-22T13:06:41.987Z,692.00